createdAt,value
2022-09-22T00:00:59.578Z,3.57
2022-09-22T00:03:29.563Z,4.07
2022-09-22T00:06:05.962Z,3.70
2022-09-22T00:08:34.160Z,3.60
2022-09-22T00:11:14.045Z,3.57
2022-09-22T00:13:43.464Z,3.97
2022-09-22T00:16:11.238Z,3.80
2022-09-22T00:18:37.949Z,3.97
2022-09-22T00:21:09.255Z,3.30
2022-09-22T00:23:36.939Z,3.50
2022-09-22T00:26:12.248Z,3.57
2022-09-22T00:28:39.064Z,3.80
2022-09-22T00:31:10.345Z,3.23
2022-09-22T00:33:38.470Z,4.00
2022-09-22T00:36:05.288Z,3.23
2022-09-22T00:38:34.209Z,3.37
2022-09-22T00:41:01.531Z,3.57
2022-09-22T00:43:33.770Z,4.50
2022-09-22T00:46:09.428Z,4.63
2022-09-22T00:48:39.623Z,4.40
2022-09-22T00:51:07.688Z,4.90
2022-09-22T00:53:34.521Z,4.73
2022-09-22T00:56:34.976Z,5.10
2022-09-22T00:59:08.271Z,5.23
2022-09-22T01:01:36.892Z,5.70
2022-09-22T01:04:04.607Z,6.10
2022-09-22T01:06:31.318Z,6.43
2022-09-22T01:08:58.019Z,6.30
2022-09-22T01:11:25.254Z,6.20
2022-09-22T01:14:22.592Z,5.50
2022-09-22T01:16:55.821Z,6.23
2022-09-22T01:19:25.946Z,6.23
2022-09-22T01:22:20.320Z,5.80
2022-09-22T01:24:56.168Z,5.87
2022-09-22T01:27:33.028Z,6.70
2022-09-22T01:30:29.056Z,5.73
2022-09-22T01:33:14.197Z,5.30
2022-09-22T01:36:04.024Z,4.87
2022-09-22T01:38:54.214Z,5.23
2022-09-22T01:41:43.068Z,5.73
2022-09-22T01:44:22.946Z,5.30
2022-09-22T01:47:07.568Z,5.50
2022-09-22T01:49:35.276Z,5.60
2022-09-22T01:52:06.092Z,6.50
2022-09-22T01:54:36.012Z,6.00
2022-09-22T01:57:14.528Z,6.50
2022-09-22T01:59:41.291Z,6.70
2022-09-22T02:02:15.738Z,6.07
2022-09-22T02:04:46.423Z,6.03
2022-09-22T02:07:16.196Z,6.30
2022-09-22T02:09:45.619Z,6.43
2022-09-22T02:12:12.362Z,6.27
2022-09-22T02:14:39.137Z,6.10
2022-09-22T02:17:05.870Z,6.40
2022-09-22T02:19:41.409Z,6.87
2022-09-22T02:22:08.987Z,7.10
2022-09-22T02:24:37.725Z,7.50
2022-09-22T02:27:09.171Z,6.80
2022-09-22T02:29:43.758Z,7.87
2022-09-22T02:32:14.388Z,7.13
2022-09-22T02:34:41.054Z,7.23
2022-09-22T02:37:32.363Z,6.87
2022-09-22T02:40:23.279Z,7.00
2022-09-22T02:43:13.829Z,7.53
2022-09-22T02:45:49.930Z,7.33
2022-09-22T02:48:23.785Z,8.27
2022-09-22T02:50:50.733Z,8.17
2022-09-22T02:53:17.953Z,9.33
2022-09-22T02:55:44.931Z,9.40
2022-09-22T02:58:12.771Z,9.97
2022-09-22T03:00:39.817Z,9.70
2022-09-22T03:03:07.323Z,9.20
2022-09-22T03:05:34.018Z,10.67
2022-09-22T03:08:02.941Z,9.37
2022-09-22T03:10:29.717Z,9.73
2022-09-22T03:13:15.355Z,10.37
2022-09-22T03:15:42.617Z,11.10
2022-09-22T03:18:09.467Z,11.63
2022-09-22T03:20:41.135Z,11.50
2022-09-22T03:23:09.990Z,10.87
2022-09-22T03:25:36.741Z,10.03
2022-09-22T03:28:03.535Z,10.83
2022-09-22T03:30:32.886Z,11.40
2022-09-22T03:32:59.609Z,10.10
2022-09-22T03:35:28.540Z,10.77
2022-09-22T03:37:57.726Z,11.67
2022-09-22T03:40:24.534Z,10.80
2022-09-22T03:42:53.544Z,10.60
2022-09-22T03:45:20.424Z,11.20
2022-09-22T03:47:47.139Z,10.80
2022-09-22T03:50:14.237Z,10.23
2022-09-22T03:52:45.144Z,9.90
2022-09-22T03:55:11.975Z,11.53
2022-09-22T03:57:39.389Z,10.37
2022-09-22T04:00:07.311Z,10.93
2022-09-22T04:02:34.161Z,10.83
2022-09-22T04:05:03.447Z,11.57
2022-09-22T04:07:30.152Z,10.97
2022-09-22T04:09:57.621Z,11.00
2022-09-22T04:12:26.587Z,11.23
2022-09-22T04:14:55.823Z,12.63
2022-09-22T04:17:22.549Z,11.77
2022-09-22T04:19:49.699Z,11.93
2022-09-22T04:22:18.650Z,11.73
2022-09-22T04:24:45.393Z,11.90
2022-09-22T04:27:20.559Z,11.70
2022-09-22T04:29:52.379Z,12.40
2022-09-22T04:32:19.231Z,13.53
2022-09-22T04:34:46.022Z,13.13
2022-09-22T04:37:15.016Z,13.47
2022-09-22T04:39:43.968Z,13.60
2022-09-22T04:42:11.127Z,13.93
2022-09-22T04:44:37.821Z,14.33
2022-09-22T04:47:07.188Z,13.20
2022-09-22T04:49:33.912Z,13.80
2022-09-22T04:52:00.723Z,13.17
2022-09-22T04:54:27.442Z,12.07
2022-09-22T04:56:54.172Z,12.47
2022-09-22T04:59:20.870Z,11.87
2022-09-22T05:01:47.613Z,12.03
2022-09-22T05:04:18.049Z,12.33
2022-09-22T05:06:44.761Z,11.87
2022-09-22T05:09:11.469Z,12.37
2022-09-22T05:11:38.209Z,11.63
2022-09-22T05:14:04.992Z,12.37
2022-09-22T05:16:32.669Z,11.83
2022-09-22T05:18:59.528Z,11.37
2022-09-22T05:21:26.255Z,11.37
2022-09-22T05:23:53.680Z,10.70
2022-09-22T05:26:20.395Z,11.57
2022-09-22T05:28:47.109Z,12.17
2022-09-22T05:31:14.042Z,11.97
2022-09-22T05:33:41.030Z,12.03
2022-09-22T05:36:07.797Z,12.63
2022-09-22T05:38:34.564Z,12.77
2022-09-22T05:41:03.812Z,12.47
2022-09-22T05:43:30.620Z,11.73
2022-09-22T05:45:59.614Z,11.80
2022-09-22T05:48:30.384Z,12.03
2022-09-22T05:50:59.402Z,12.77
2022-09-22T05:53:26.109Z,12.30
2022-09-22T05:55:53.007Z,12.93
2022-09-22T05:58:19.717Z,12.43
2022-09-22T06:00:46.713Z,11.93
2022-09-22T06:03:13.565Z,12.20
2022-09-22T06:05:43.776Z,11.90
2022-09-22T06:08:12.704Z,11.60
2022-09-22T06:10:39.506Z,11.10
2022-09-22T06:13:11.852Z,11.10
2022-09-22T06:15:38.632Z,11.57
2022-09-22T06:18:15.270Z,11.37
2022-09-22T06:20:42.459Z,10.97
2022-09-22T06:23:12.701Z,10.87
2022-09-22T06:25:39.412Z,10.60
2022-09-22T06:28:07.293Z,10.77
2022-09-22T06:30:37.130Z,10.73
2022-09-22T06:33:03.957Z,10.50
2022-09-22T06:35:35.417Z,12.13
2022-09-22T06:38:07.540Z,11.57
2022-09-22T06:40:37.030Z,11.70
2022-09-22T06:43:07.620Z,12.20
2022-09-22T06:45:36.904Z,10.90
2022-09-22T06:48:08.976Z,11.97
2022-09-22T06:50:36.805Z,12.03
2022-09-22T06:53:04.810Z,11.33
2022-09-22T06:55:31.874Z,12.33
2022-09-22T06:58:02.869Z,12.93
2022-09-22T07:00:33.695Z,13.13
2022-09-22T07:03:11.506Z,13.97
2022-09-22T07:05:43.391Z,12.07
2022-09-22T07:08:10.102Z,10.87
2022-09-22T07:10:39.066Z,10.97
2022-09-22T07:13:06.025Z,11.03
2022-09-22T07:15:34.143Z,11.37
2022-09-22T07:18:00.904Z,12.37
2022-09-22T07:20:28.969Z,12.90
2022-09-22T07:23:00.529Z,12.80
2022-09-22T07:25:35.949Z,15.43
2022-09-22T07:28:05.327Z,14.63
2022-09-22T07:30:32.309Z,14.17
2022-09-22T07:33:00.190Z,14.57
2022-09-22T07:35:28.753Z,13.17
2022-09-22T07:37:57.039Z,13.70
2022-09-22T07:40:23.927Z,13.33
2022-09-22T07:42:50.818Z,11.87
2022-09-22T07:45:17.628Z,12.23
2022-09-22T07:48:02.758Z,12.53
2022-09-22T07:50:30.156Z,11.33
2022-09-22T07:52:59.371Z,9.90
2022-09-22T07:55:26.068Z,9.57
2022-09-22T07:57:59.567Z,10.80
2022-09-22T08:00:33.042Z,9.97
2022-09-22T08:03:01.280Z,8.47
2022-09-22T08:05:30.382Z,7.43
2022-09-22T08:08:00.846Z,7.37
2022-09-22T08:10:35.632Z,6.07
2022-09-22T08:13:07.111Z,6.10
2022-09-22T08:15:33.965Z,6.60
2022-09-22T08:18:03.807Z,6.47
2022-09-22T08:20:32.445Z,7.20
2022-09-22T08:23:00.880Z,5.70
2022-09-22T08:25:27.583Z,6.23
2022-09-22T08:27:54.528Z,5.70
2022-09-22T08:30:21.266Z,5.37
2022-09-22T08:32:50.172Z,5.77
2022-09-22T08:35:16.881Z,5.83
2022-09-22T08:37:45.805Z,5.20
2022-09-22T08:40:17.162Z,5.60
2022-09-22T08:42:45.591Z,5.37
2022-09-22T08:45:27.011Z,5.20
2022-09-22T08:48:14.836Z,4.50
2022-09-22T08:51:05.942Z,4.87
2022-09-22T08:53:37.490Z,4.30
2022-09-22T08:56:11.595Z,4.30
2022-09-22T08:58:49.667Z,4.10
2022-09-22T09:01:38.732Z,3.97
2022-09-22T09:04:34.996Z,3.83
2022-09-22T09:07:08.119Z,4.00
2022-09-22T09:09:38.576Z,4.10
2022-09-22T09:12:22.080Z,4.03
2022-09-22T09:14:54.890Z,3.57
2022-09-22T09:17:30.676Z,3.57
2022-09-22T09:20:04.738Z,3.40
2022-09-22T09:22:35.038Z,3.70
2022-09-22T09:28:02.535Z,4.33
2022-09-22T09:30:45.455Z,3.77
2022-09-22T09:33:24.135Z,3.57
2022-09-22T09:35:53.973Z,3.53
2022-09-22T09:38:29.557Z,3.27
2022-09-22T09:41:01.335Z,3.00
2022-09-22T09:43:28.371Z,2.80
2022-09-22T09:46:04.085Z,2.83
2022-09-22T09:48:42.284Z,2.80
2022-09-22T09:51:14.511Z,2.60
2022-09-22T09:53:46.479Z,2.40
2022-09-22T09:56:24.435Z,2.83
2022-09-22T09:59:20.311Z,2.67
2022-09-22T10:01:54.007Z,2.60
2022-09-22T10:04:34.224Z,2.40
2022-09-22T10:07:10.938Z,2.07
2022-09-22T10:09:37.680Z,2.33
2022-09-22T10:12:04.522Z,2.20
2022-09-22T10:14:36.832Z,2.00
2022-09-22T10:17:04.000Z,2.37
2022-09-22T10:19:34.663Z,1.83
2022-09-22T10:22:31.546Z,1.70
2022-09-22T10:25:04.902Z,1.80
2022-09-22T10:27:31.843Z,1.40
2022-09-22T10:30:25.256Z,1.80
2022-09-22T10:33:05.064Z,1.57
2022-09-22T10:35:33.731Z,1.70
2022-09-22T10:38:09.940Z,1.57
2022-09-22T10:40:40.406Z,1.87
2022-09-22T10:43:13.264Z,1.40
2022-09-22T10:45:52.274Z,1.10
2022-09-22T10:48:37.621Z,1.23
2022-09-22T10:51:09.952Z,1.30
2022-09-22T10:54:11.902Z,1.37
2022-09-22T10:56:51.796Z,1.43
2022-09-22T10:59:18.586Z,1.50
2022-09-22T11:02:06.330Z,1.40
2022-09-22T11:04:43.408Z,1.40
2022-09-22T11:07:43.987Z,1.73
2022-09-22T11:10:35.400Z,1.50
2022-09-22T11:13:15.025Z,1.63
2022-09-22T11:16:15.465Z,1.60
2022-09-22T11:18:55.961Z,1.40
2022-09-22T11:21:41.767Z,1.13
2022-09-22T11:24:30.097Z,1.40
2022-09-22T11:26:57.501Z,1.70
2022-09-22T11:29:52.138Z,1.30
2022-09-22T11:32:44.978Z,1.40
2022-09-22T11:35:34.858Z,1.40
2022-09-22T11:38:26.112Z,1.40
2022-09-22T11:41:05.014Z,1.83
2022-09-22T11:43:50.505Z,1.90
2022-09-22T11:46:23.086Z,1.40
2022-09-22T11:49:10.636Z,1.60
2022-09-22T11:52:16.511Z,1.70
2022-09-22T11:54:46.064Z,1.70
2022-09-22T11:57:19.676Z,1.50
2022-09-22T12:00:24.932Z,1.80
2022-09-22T12:03:17.129Z,1.70
2022-09-22T12:05:47.235Z,2.00
2022-09-22T12:08:17.660Z,1.67
2022-09-22T12:10:45.011Z,2.00
2022-09-22T12:13:22.894Z,1.93
2022-09-22T12:15:58.923Z,1.60
2022-09-22T12:18:46.638Z,1.73
2022-09-22T12:21:50.853Z,1.70
2022-09-22T12:24:17.567Z,2.00
2022-09-22T12:26:47.951Z,1.70
2022-09-22T12:29:14.712Z,2.03
2022-09-22T12:31:48.568Z,2.20
2022-09-22T12:34:23.665Z,2.00
2022-09-22T12:36:59.392Z,2.23
2022-09-22T12:39:31.021Z,1.97
2022-09-22T12:42:07.101Z,1.97
2022-09-22T12:44:43.103Z,2.67
2022-09-22T12:47:23.162Z,2.27
2022-09-22T12:50:00.111Z,2.27
2022-09-22T12:52:42.204Z,2.10
2022-09-22T12:55:30.145Z,2.13
2022-09-22T12:58:01.381Z,2.07
2022-09-22T13:00:38.215Z,1.90
2022-09-22T13:03:26.863Z,2.00
2022-09-22T13:05:57.790Z,2.30
2022-09-22T13:08:25.909Z,2.50
2022-09-22T13:11:06.113Z,2.60
2022-09-22T13:13:36.760Z,2.40
2022-09-22T13:16:15.773Z,2.20
2022-09-22T13:18:45.940Z,2.10
2022-09-22T13:21:14.935Z,2.33
2022-09-22T13:23:54.049Z,2.37
2022-09-22T13:26:22.881Z,2.30
2022-09-22T13:29:14.155Z,2.27
2022-09-22T13:31:45.276Z,2.10
2022-09-22T13:34:27.047Z,1.90
2022-09-22T13:37:03.725Z,2.30
2022-09-22T13:39:51.515Z,2.30
2022-09-22T13:42:32.477Z,2.33
2022-09-22T13:45:01.569Z,2.03
2022-09-22T13:47:31.284Z,2.40
2022-09-22T13:50:04.016Z,2.33
2022-09-22T13:52:32.009Z,2.60
2022-09-22T13:55:37.466Z,2.47
2022-09-22T13:58:19.228Z,2.30
2022-09-22T14:01:12.747Z,2.53
2022-09-22T14:03:42.603Z,2.17
2022-09-22T14:06:16.340Z,2.30
2022-09-22T14:08:43.544Z,2.67
2022-09-22T14:11:18.871Z,2.37
2022-09-22T14:13:55.185Z,2.40
2022-09-22T14:16:48.392Z,2.63
2022-09-22T14:19:15.782Z,2.40
2022-09-22T14:21:55.583Z,2.30
2022-09-22T14:24:22.323Z,2.10
2022-09-22T14:27:03.819Z,2.43
2022-09-22T14:29:33.735Z,2.27
2022-09-22T14:32:17.479Z,2.70
2022-09-22T14:34:52.101Z,2.60
2022-09-22T14:37:22.485Z,2.63
2022-09-22T14:39:50.808Z,2.30
2022-09-22T14:42:25.753Z,2.10
2022-09-22T14:45:10.556Z,2.40
2022-09-22T14:47:41.010Z,2.07
2022-09-22T14:50:14.388Z,2.20
2022-09-22T14:52:46.493Z,2.00
2022-09-22T14:55:24.993Z,2.10
2022-09-22T14:57:51.753Z,2.00
2022-09-22T15:00:37.333Z,2.27
2022-09-22T15:03:13.608Z,1.90
2022-09-22T15:05:44.358Z,2.10
2022-09-22T15:08:20.498Z,1.93
2022-09-22T15:10:59.771Z,2.10
2022-09-22T15:13:35.211Z,2.20
2022-09-22T15:16:02.218Z,2.43
2022-09-22T15:18:30.975Z,2.23
2022-09-22T15:20:59.813Z,2.53
2022-09-22T15:23:41.353Z,2.10
2022-09-22T15:26:21.698Z,1.97
2022-09-22T15:28:54.082Z,3.03
2022-09-22T15:31:28.218Z,2.10
2022-09-22T15:33:56.305Z,2.10
2022-09-22T15:36:25.671Z,2.37
2022-09-22T15:38:59.346Z,2.10
2022-09-22T15:41:28.583Z,2.10
2022-09-22T15:43:55.579Z,2.80
2022-09-22T15:46:33.664Z,2.60
2022-09-22T15:49:02.963Z,2.07
2022-09-22T15:51:31.640Z,1.70
2022-09-22T15:54:03.081Z,1.50
2022-09-22T15:56:32.754Z,1.50
2022-09-22T15:59:01.071Z,1.60
2022-09-22T16:02:03.779Z,1.47
2022-09-22T16:04:33.577Z,1.63
2022-09-22T16:07:04.823Z,1.67
2022-09-22T16:09:33.811Z,1.70
2022-09-22T16:12:00.802Z,1.60
2022-09-22T16:14:27.574Z,1.70
2022-09-22T16:16:54.353Z,1.77
2022-09-22T16:19:21.096Z,1.50
2022-09-22T16:21:54.295Z,1.80
2022-09-22T16:24:22.600Z,1.70
2022-09-22T16:26:52.643Z,1.87
2022-09-22T16:29:19.382Z,2.03
2022-09-22T16:31:49.056Z,2.03
2022-09-22T16:34:18.180Z,1.97
2022-09-22T16:36:45.215Z,1.97
2022-09-22T16:39:14.461Z,2.30
2022-09-22T16:41:44.254Z,1.83
2022-09-22T16:44:11.063Z,2.23
2022-09-22T16:46:41.515Z,2.30
2022-09-22T16:49:12.890Z,2.30
2022-09-22T16:51:40.983Z,2.37
2022-09-22T16:54:10.454Z,2.57
2022-09-22T16:56:37.988Z,2.50
2022-09-22T16:59:09.751Z,2.93
2022-09-22T17:01:38.390Z,4.33
2022-09-22T17:04:08.437Z,3.20
2022-09-22T17:06:36.117Z,2.83
2022-09-22T17:09:05.565Z,2.80
2022-09-22T17:11:36.371Z,2.57
2022-09-22T17:14:12.248Z,2.90
2022-09-22T17:16:43.806Z,2.70
2022-09-22T17:19:19.415Z,3.30
2022-09-22T17:21:47.616Z,3.30
2022-09-22T17:24:14.926Z,3.30
2022-09-22T17:26:49.186Z,2.90
2022-09-22T17:29:17.209Z,3.20
2022-09-22T17:31:44.558Z,3.10
2022-09-22T17:34:12.912Z,3.07
2022-09-22T17:36:39.827Z,3.20
2022-09-22T17:39:10.634Z,2.83
2022-09-22T17:41:44.336Z,3.20
2022-09-22T17:44:11.314Z,3.13
2022-09-22T17:46:58.126Z,3.30
2022-09-22T17:49:43.580Z,3.27
2022-09-22T17:52:28.648Z,3.57
2022-09-22T17:55:09.469Z,3.57
2022-09-22T17:57:39.803Z,3.20
2022-09-22T18:00:10.731Z,3.60
2022-09-22T18:02:39.988Z,3.20
2022-09-22T18:05:14.529Z,3.20
2022-09-22T18:07:43.574Z,3.27
2022-09-22T18:10:12.440Z,3.60
2022-09-22T18:12:39.517Z,3.50
2022-09-22T18:15:07.230Z,3.13
2022-09-22T18:17:43.222Z,3.03
2022-09-22T18:20:18.489Z,3.10
2022-09-22T18:22:47.998Z,3.10
2022-09-22T18:25:19.523Z,3.30
2022-09-22T18:27:48.475Z,3.00
2022-09-22T18:30:16.138Z,2.80
2022-09-22T18:32:42.939Z,3.50
2022-09-22T18:35:09.760Z,3.40
2022-09-22T18:37:36.535Z,2.80
2022-09-22T18:40:03.570Z,3.20
2022-09-22T18:42:34.612Z,2.87
2022-09-22T18:45:03.743Z,2.90
2022-09-22T18:47:30.640Z,2.90
2022-09-22T18:50:04.116Z,3.13
2022-09-22T18:52:33.682Z,3.30
2022-09-22T18:55:00.642Z,3.27
2022-09-22T18:57:29.816Z,3.30
2022-09-22T18:59:59.878Z,3.40
2022-09-22T19:02:26.824Z,3.13
2022-09-22T19:04:56.233Z,3.10
2022-09-22T19:07:42.014Z,3.03
2022-09-22T19:10:11.484Z,3.40
2022-09-22T19:12:40.449Z,3.50
2022-09-22T19:15:15.553Z,3.60
2022-09-22T19:17:44.703Z,3.27
2022-09-22T19:20:17.324Z,3.40
2022-09-22T19:22:44.381Z,3.40
2022-09-22T19:25:11.231Z,3.90
2022-09-22T19:27:39.803Z,3.33
2022-09-22T19:30:08.166Z,3.70
2022-09-22T19:32:34.972Z,3.53
2022-09-22T19:35:01.871Z,3.70
2022-09-22T19:37:31.103Z,3.83
2022-09-22T19:39:57.801Z,3.77
2022-09-22T19:42:24.620Z,3.50
2022-09-22T19:44:51.345Z,4.20
2022-09-22T19:47:18.817Z,3.67
2022-09-22T19:49:45.584Z,4.30
2022-09-22T19:52:13.342Z,4.53
2022-09-22T19:54:40.735Z,4.10
2022-09-22T19:57:10.724Z,4.17
2022-09-22T19:59:37.437Z,3.67
2022-09-22T20:02:06.048Z,4.27
2022-09-22T20:04:37.101Z,4.10
2022-09-22T20:07:08.422Z,3.87
2022-09-22T20:09:37.885Z,3.60
2022-09-22T20:12:04.732Z,4.20
2022-09-22T20:14:32.020Z,4.30
2022-09-22T20:17:05.798Z,3.97
2022-09-22T20:19:33.832Z,4.23
2022-09-22T20:22:18.820Z,4.40
2022-09-22T20:24:57.298Z,4.60
2022-09-22T20:27:26.854Z,4.40
2022-09-22T20:29:57.066Z,4.70
2022-09-22T20:32:24.867Z,4.80
2022-09-22T20:34:52.156Z,4.57
2022-09-22T20:37:18.872Z,4.50
2022-09-22T20:39:47.464Z,4.53
2022-09-22T20:42:18.179Z,4.47
2022-09-22T20:44:49.069Z,4.53
2022-09-22T20:47:21.228Z,4.43
2022-09-22T20:49:51.915Z,4.67
2022-09-22T20:52:20.174Z,4.40
2022-09-22T20:54:47.266Z,4.40
2022-09-22T20:57:14.222Z,5.47
2022-09-22T20:59:45.420Z,4.63
2022-09-22T21:02:12.729Z,4.53
2022-09-22T21:04:39.779Z,4.83
2022-09-22T21:07:06.711Z,4.60
2022-09-22T21:09:52.259Z,5.37
2022-09-22T21:12:18.987Z,5.10
2022-09-22T21:14:46.034Z,5.13
2022-09-22T21:17:13.749Z,4.80
2022-09-22T21:19:43.380Z,4.77
2022-09-22T21:22:10.396Z,6.00
2022-09-22T21:24:37.178Z,5.67
2022-09-22T21:27:04.294Z,5.03
2022-09-22T21:29:31.109Z,4.70
2022-09-22T21:31:58.070Z,4.93
2022-09-22T21:34:25.085Z,4.87
2022-09-22T21:36:51.935Z,4.77
2022-09-22T21:39:18.758Z,5.13
2022-09-22T21:41:45.710Z,4.87
2022-09-22T21:44:12.488Z,5.13
2022-09-22T21:46:41.846Z,4.60
2022-09-22T21:49:10.385Z,4.97
2022-09-22T21:51:42.335Z,5.00
2022-09-22T21:54:13.909Z,5.27
2022-09-22T21:56:42.857Z,4.80
2022-09-22T21:59:11.265Z,5.23
2022-09-22T22:01:38.833Z,4.87
2022-09-22T22:04:13.828Z,4.63
2022-09-22T22:06:47.881Z,4.57
2022-09-22T22:09:22.476Z,4.57
2022-09-22T22:11:55.612Z,4.70
2022-09-22T22:14:23.321Z,4.57
2022-09-22T22:16:51.813Z,4.00
2022-09-22T22:19:20.465Z,4.50
2022-09-22T22:21:50.789Z,5.00
2022-09-22T22:24:19.438Z,4.70
2022-09-22T22:26:54.848Z,4.10
2022-09-22T22:29:21.887Z,4.27
2022-09-22T22:31:51.921Z,4.80
2022-09-22T22:34:21.149Z,4.40
2022-09-22T22:36:48.708Z,4.33
2022-09-22T22:39:17.998Z,4.40
2022-09-22T22:41:44.815Z,4.00
2022-09-22T22:44:15.960Z,4.10
2022-09-22T22:46:45.537Z,4.30
2022-09-22T22:49:14.527Z,4.80
2022-09-22T22:51:43.165Z,5.10
2022-09-22T22:54:13.345Z,4.87
2022-09-22T22:56:43.723Z,4.27
2022-09-22T22:59:15.015Z,4.77
2022-09-22T23:01:44.011Z,4.73
2022-09-22T23:04:11.071Z,4.80
2022-09-22T23:06:44.078Z,4.83
2022-09-22T23:09:13.604Z,5.03
2022-09-22T23:11:40.452Z,5.43
2022-09-22T23:14:09.220Z,5.20
2022-09-22T23:16:43.427Z,5.03
2022-09-22T23:19:14.620Z,5.00
2022-09-22T23:21:41.549Z,5.30
2022-09-22T23:24:16.464Z,4.63
2022-09-22T23:26:46.647Z,4.93
2022-09-22T23:29:15.577Z,4.53
2022-09-22T23:31:42.420Z,4.80
2022-09-22T23:34:11.413Z,5.23
2022-09-22T23:36:39.588Z,4.80
2022-09-22T23:39:10.437Z,4.83
2022-09-22T23:41:37.224Z,4.67
2022-09-22T23:44:06.997Z,4.87
2022-09-22T23:46:34.233Z,5.43
2022-09-22T23:49:01.276Z,5.17
2022-09-22T23:51:28.334Z,5.97
2022-09-22T23:53:55.509Z,5.33
2022-09-22T23:56:22.273Z,4.97
2022-09-22T23:58:49.010Z,5.67
